Time;durP1;ratioP1;P1;durP2;ratioP2;P2;SDS_P1;SDS_P2;PMS_P1;PMS_P2;Temp;Humidity;BMP_temperature;BMP_pressure;BME280_temperature;BME280_humidity;BME280_pressure;Samples;Min_cycle;Max_cycle;Signal;HPM_P1;HPM_P2
2022/07/10 00:00:36;;;;;;;;;4.33;3.00;;;;;20.27;49.47;101907.41;4929450;28;45381;-84
2022/07/10 00:03:03;;;;;;;;;4.67;3.00;;;;;20.26;48.46;101920.03;4929965;28;44919;-84
2022/07/10 00:05:30;;;;;;;;;4.33;3.00;;;;;20.23;49.33;101911.06;4930671;28;45515;-83
2022/07/10 00:07:56;;;;;;;;;4.67;4.00;;;;;20.21;48.58;101918.28;4913235;28;47186;-82
2022/07/10 00:10:22;;;;;;;;;3.00;3.00;;;;;20.21;48.66;101916.47;4928398;28;45545;-84
2022/07/10 00:12:48;;;;;;;;;3.67;3.67;;;;;20.18;48.56;101921.91;4912733;28;44766;-84
2022/07/10 00:15:18;;;;;;;;;5.00;4.00;;;;;20.16;48.84;101926.41;4930533;28;45398;-84
2022/07/10 00:17:45;;;;;;;;;4.33;3.00;;;;;20.07;49.52;101927.34;4912422;28;47283;-84
2022/07/10 00:20:12;;;;;;;;;3.00;3.00;;;;;20.05;49.20;101929.16;4913143;28;45444;-85
2022/07/10 00:22:42;;;;;;;;;3.00;3.00;;;;;20.03;49.65;101930.97;4930127;28;45306;-84
2022/07/10 00:25:11;;;;;;;;;3.00;3.00;;;;;20.01;49.61;101932.78;4904153;28;45501;-84
2022/07/10 00:27:36;;;;;;;;;3.33;3.33;;;;;19.93;49.77;101926.53;4932434;28;47464;-84
2022/07/10 00:30:03;;;;;;;;;3.67;3.67;;;;;19.97;50.70;101925.63;4933177;28;45442;-84
2022/07/10 00:32:28;;;;;;;;;3.00;3.00;;;;;19.96;49.73;101930.13;4932693;28;45368;-84
2022/07/10 00:34:54;;;;;;;;;3.00;3.00;;;;;19.93;49.94;101932.81;4932666;28;45417;-84
2022/07/10 00:40:41;;;;;;;;;4.00;3.00;;;;;19.82;51.49;101915.81;4932583;28;45365;-84
2022/07/10 00:43:09;;;;;;;;;3.00;3.00;;;;;19.78;51.13;101917.63;4914232;28;45347;-84
2022/07/10 00:45:35;;;;;;;;;3.33;3.00;;;;;19.74;51.35;101918.53;4914321;28;45664;-84
2022/07/10 00:48:00;;;;;;;;;5.00;5.00;;;;;19.65;50.91;101918.53;4913436;29;48356;-83
2022/07/10 00:50:26;;;;;;;;;3.33;3.33;;;;;19.70;52.47;101918.53;4914422;28;45761;-83
2022/07/10 00:52:52;;;;;;;;;5.00;4.00;;;;;19.64;52.04;101911.38;4914531;28;44801;-84
2022/07/10 00:55:18;;;;;;;;;3.67;3.67;;;;;19.55;51.99;101906.00;4915313;28;45429;-83
2022/07/10 00:57:43;;;;;;;;;3.00;3.00;;;;;19.56;54.27;101918.59;4912238;28;47757;-83
2022/07/10 01:00:11;;;;;;;;;3.67;3.67;;;;;19.49;52.42;101916.81;4913977;28;44896;-84
2022/07/10 01:03:10;;;;;;;;;3.00;2.00;;;;;19.50;53.06;101913.22;4913497;28;45822;-83
2022/07/10 01:05:39;;;;;;;;;3.67;3.67;;;;;19.45;55.08;101917.75;4913900;28;45479;-84
2022/07/10 01:08:05;;;;;;;;;4.00;3.33;;;;;19.39;53.87;101916.00;4913014;28;47413;-84
2022/07/10 01:10:31;;;;;;;;;4.00;3.00;;;;;19.35;54.56;101914.16;4913438;29;44884;-84
2022/07/10 01:12:56;;;;;;;;;2.00;2.00;;;;;19.24;55.86;101892.63;4915208;28;45448;-84
2022/07/10 01:18:43;;;;;;;;;2.00;2.00;;;;;19.27;55.31;101910.59;4914093;28;45645;-84
2022/07/10 01:21:31;;;;;;;;;4.33;3.00;;;;;19.29;54.77;101919.59;4928453;28;45542;-84
2022/07/10 01:23:57;;;;;;;;;4.33;4.33;;;;;19.18;55.66;101906.16;4914128;28;45546;-84
2022/07/10 01:26:25;;;;;;;;;3.67;3.67;;;;;19.17;55.47;101905.25;4912397;28;45192;-84
2022/07/10 01:28:56;;;;;;;;;4.00;4.00;;;;;19.10;57.55;101906.16;4913210;28;46252;-84
2022/07/10 01:31:26;;;;;;;;;3.00;3.00;;;;;19.00;57.86;101896.31;4911475;29;45418;-84
2022/07/10 01:33:53;;;;;;;;;3.00;3.00;;;;;18.97;58.53;101913.38;4912422;28;44921;-85
2022/07/10 01:36:23;;;;;;;;;1.67;1.00;;;;;18.91;57.04;101921.50;4912747;28;45420;-85
2022/07/10 01:38:51;;;;;;;;;3.00;3.00;;;;;18.88;56.42;101913.41;4912229;28;47538;-84
2022/07/10 01:44:38;;;;;;;;;3.67;3.67;;;;;18.82;59.41;101908.00;4915930;28;45807;-84
2022/07/10 01:47:04;;;;;;;;;2.67;2.67;;;;;18.79;57.62;101918.81;4932127;28;45528;-84
2022/07/10 01:49:29;;;;;;;;;4.00;4.00;;;;;18.76;58.18;101913.38;4931659;28;46907;-83
2022/07/10 01:51:55;;;;;;;;;5.00;4.00;;;;;18.67;60.29;101914.28;4933019;28;44728;-83
2022/07/10 01:54:20;;;;;;;;;3.67;3.67;;;;;18.61;61.20;101908.91;4933635;28;44961;-83
2022/07/10 01:56:47;;;;;;;;;3.67;3.33;;;;;18.51;59.10;101896.34;4933871;28;44864;-84
2022/07/10 01:59:12;;;;;;;;;4.00;4.00;;;;;18.56;61.62;101911.63;4931592;28;46677;-84
2022/07/10 02:01:38;;;;;;;;;5.33;5.33;;;;;18.54;60.28;101910.72;4933022;28;45352;-84
2022/07/10 02:06:48;;;;;;;;;3.00;3.00;;;;;18.55;59.15;101915.19;4932979;28;45416;-83
2022/07/10 02:09:14;;;;;;;;;4.00;4.00;;;;;18.55;58.97;101928.66;4931432;28;45477;-82
2022/07/10 02:11:40;;;;;;;;;4.00;4.00;;;;;18.52;59.22;101926.00;4931614;28;45472;-83
2022/07/10 02:14:05;;;;;;;;;4.33;4.33;;;;;18.42;59.66;101918.81;4930177;28;45584;-83
2022/07/10 02:16:31;;;;;;;;;3.00;3.00;;;;;18.38;59.99;101911.63;4932392;28;44925;-83
2022/07/10 02:19:06;;;;;;;;;5.33;4.00;;;;;18.32;62.97;101917.91;4930694;28;46872;-83
2022/07/10 02:21:31;;;;;;;;;5.00;5.00;;;;;18.22;60.07;101909.78;4930599;28;45349;-83
2022/07/10 02:23:57;;;;;;;;;4.00;4.00;;;;;18.24;60.21;101916.06;4933255;28;45392;-83
2022/07/10 02:26:23;;;;;;;;;4.00;4.00;;;;;18.17;60.67;101904.41;4918501;28;44895;-83
2022/07/10 02:28:51;;;;;;;;;2.33;2.33;;;;;18.12;60.26;101914.28;4915769;28;47917;-83
2022/07/10 02:31:17;;;;;;;;;4.67;4.67;;;;;18.14;60.19;101909.81;4914855;28;45418;-83
2022/07/10 02:33:42;;;;;;;;;3.00;3.00;;;;;18.12;60.57;101899.03;4915512;28;45138;-83
2022/07/10 02:36:08;;;;;;;;;4.33;4.33;;;;;18.12;61.56;101888.25;4933144;28;44906;-83
2022/07/10 02:38:33;;;;;;;;;5.67;5.00;;;;;18.07;62.89;101894.53;4916603;28;46959;-84
2022/07/10 02:40:59;;;;;;;;;6.00;6.00;;;;;18.02;63.33;101902.59;4914901;28;45418;-84
2022/07/10 02:43:24;;;;;;;;;4.33;3.33;;;;;17.92;63.81;101896.28;4915395;28;45370;-84
2022/07/10 02:45:50;;;;;;;;;5.00;4.00;;;;;17.83;63.99;101895.34;4915583;28;45091;-83
2022/07/10 02:48:16;;;;;;;;;5.00;4.00;;;;;17.70;63.55;101884.53;4915589;28;47765;-83
2022/07/10 02:50:41;;;;;;;;;6.33;4.33;;;;;17.68;63.27;101885.44;4931710;28;44797;-84
2022/07/10 02:53:07;;;;;;;;;4.00;4.00;;;;;17.68;62.95;101883.63;4931224;28;45429;-84
2022/07/10 02:55:33;;;;;;;;;5.00;5.00;;;;;17.64;64.84;101883.63;4932256;28;45259;-84
2022/07/10 02:57:59;;;;;;;;;5.00;4.00;;;;;17.67;62.65;101889.00;4932076;28;45354;-83
2022/07/10 03:00:26;;;;;;;;;3.67;3.67;;;;;17.65;62.08;101880.91;4915491;28;45414;-83
2022/07/10 03:02:54;;;;;;;;;5.67;4.00;;;;;17.67;64.55;101892.59;4915491;28;45271;-84
2022/07/10 03:05:19;;;;;;;;;5.00;4.67;;;;;17.58;62.99;101889.88;4931357;28;45438;-84
2022/07/10 03:07:45;;;;;;;;;3.00;3.00;;;;;17.57;64.27;101890.75;4929730;28;46226;-83
2022/07/10 03:10:10;;;;;;;;;4.00;4.00;;;;;17.55;63.83;101890.78;4913434;28;44872;-83
2022/07/10 03:12:36;;;;;;;;;1.00;1.00;;;;;17.58;63.99;101895.25;4914020;28;45397;-83
2022/07/10 03:15:05;;;;;;;;;6.00;4.67;;;;;17.56;63.33;101897.03;4913898;28;45209;-82
2022/07/10 03:17:30;;;;;;;;;5.00;5.00;;;;;17.52;63.00;101880.00;4913659;28;48457;-83
2022/07/10 03:19:56;;;;;;;;;4.00;4.00;;;;;17.59;64.73;101897.97;4930518;28;44825;-83
2022/07/10 03:22:21;;;;;;;;;5.00;5.00;;;;;17.53;63.45;101895.25;4914493;28;45430;-83
2022/07/10 03:24:47;;;;;;;;;4.33;4.33;;;;;17.47;64.34;101870.09;4916205;28;44861;-83
2022/07/10 03:27:22;;;;;;;;;4.00;4.00;;;;;17.51;64.20;101888.03;4915405;28;46917;-82
2022/07/10 03:29:47;;;;;;;;;3.67;3.67;;;;;17.45;66.75;101879.97;4931401;28;44851;-83
2022/07/10 03:32:12;;;;;;;;;4.33;4.33;;;;;17.48;64.44;101891.63;4931818;28;45548;-84
2022/07/10 03:34:38;;;;;;;;;5.33;5.33;;;;;17.34;65.33;101870.06;4913792;28;45546;-84
2022/07/10 03:37:04;;;;;;;;;3.67;3.67;;;;;17.34;67.15;101878.13;4929352;28;45381;-84
2022/07/10 03:39:29;;;;;;;;;4.00;3.00;;;;;17.36;65.23;101884.41;4911259;28;45439;-84
2022/07/10 03:41:55;;;;;;;;;4.33;4.33;;;;;17.33;67.78;101887.09;4928657;28;45477;-84
2022/07/10 03:44:20;;;;;;;;;4.67;4.67;;;;;17.31;67.98;101882.59;4913838;28;45747;-84
2022/07/10 03:46:45;;;;;;;;;4.00;4.00;;;;;17.24;68.45;101868.22;4929290;28;45468;-84
2022/07/10 03:49:11;;;;;;;;;4.67;4.67;;;;;17.23;68.16;101877.19;4929392;28;45503;-84
2022/07/10 03:51:39;;;;;;;;;5.00;5.00;;;;;17.27;67.19;101880.78;4930843;28;45462;-84
2022/07/10 03:54:05;;;;;;;;;4.33;4.33;;;;;17.30;66.07;101873.63;4913881;28;45466;-84
2022/07/10 03:59:14;;;;;;;;;4.33;4.33;;;;;17.35;66.09;101871.88;4930073;28;45281;-84
2022/07/10 04:01:39;;;;;;;;;3.00;3.00;;;;;17.38;66.59;101873.66;4931508;28;45438;-85
2022/07/10 04:04:05;;;;;;;;;5.00;5.00;;;;;17.39;65.84;101873.69;4914642;28;45266;-84
2022/07/10 04:06:30;;;;;;;;;5.00;5.00;;;;;17.38;67.39;101874.56;4914316;28;46869;-84
2022/07/10 04:08:55;;;;;;;;;6.00;6.00;;;;;17.30;67.08;101868.25;4914624;28;45485;-83
2022/07/10 04:11:21;;;;;;;;;6.00;6.00;;;;;17.27;68.26;101883.47;4932980;28;45598;-83
2022/07/10 04:13:46;;;;;;;;;5.00;5.00;;;;;17.25;66.93;101891.53;4916888;28;44975;-83
2022/07/10 04:16:12;;;;;;;;;6.67;5.33;;;;;17.25;66.97;101886.16;4930110;28;48077;-84
2022/07/10 04:18:41;;;;;;;;;6.00;6.00;;;;;17.25;67.50;101894.22;4931615;28;45441;-83
2022/07/10 04:21:06;;;;;;;;;6.00;6.00;;;;;17.20;67.27;101871.78;4930562;28;45446;-83
2022/07/10 04:23:33;;;;;;;;;5.33;4.00;;;;;17.26;68.90;101887.94;4912032;28;45562;-83
2022/07/10 04:26:05;;;;;;;;;8.00;6.00;;;;;17.24;68.38;101883.47;4920233;28;47305;-84
2022/07/10 04:28:37;;;;;;;;;6.67;4.00;;;;;17.20;69.05;101871.78;4928087;28;45513;-84
2022/07/10 04:31:03;;;;;;;;;6.00;4.00;;;;;17.24;67.45;101884.34;4928306;28;45403;-84
2022/07/10 04:36:50;;;;;;;;;5.00;5.00;;;;;17.41;66.91;101879.06;4930565;28;45281;-84
2022/07/10 04:39:16;;;;;;;;;6.00;6.00;;;;;17.56;67.24;101880.91;4930538;28;44758;-84
2022/07/10 04:41:41;;;;;;;;;3.67;3.67;;;;;17.55;66.89;101889.84;4930638;28;45426;-84
2022/07/10 04:44:07;;;;;;;;;4.00;4.00;;;;;17.46;67.95;101873.69;4929486;28;45419;-83
2022/07/10 04:46:32;;;;;;;;;7.00;6.00;;;;;17.30;68.09;101868.25;4928414;28;47377;-83
2022/07/10 04:48:57;;;;;;;;;6.00;4.00;;;;;17.36;67.60;101873.66;4944861;28;45539;-84
2022/07/10 04:51:23;;;;;;;;;5.00;5.00;;;;;17.37;66.84;101875.47;4929663;28;45858;-84
2022/07/10 04:53:49;;;;;;;;;5.00;5.00;;;;;17.42;67.94;101871.91;4931523;28;45424;-84
2022/07/10 04:56:15;;;;;;;;;6.00;5.00;;;;;17.52;67.49;101884.47;4931544;28;45428;-83
2022/07/10 04:58:42;;;;;;;;;5.00;5.00;;;;;17.64;67.24;101876.44;4930853;28;45892;-83
2022/07/10 05:01:07;;;;;;;;;5.00;5.00;;;;;17.77;66.19;101882.75;4929045;28;44743;-83
2022/07/10 05:03:32;;;;;;;;;4.33;4.33;;;;;17.82;65.74;101872.03;4945629;28;45281;-84
2022/07/10 05:05:58;;;;;;;;;5.33;5.33;;;;;17.97;65.18;101888.22;4930961;28;46084;-83
2022/07/10 05:08:23;;;;;;;;;6.00;6.00;;;;;18.01;65.44;101873.88;4929834;28;45429;-84
2022/07/10 05:10:49;;;;;;;;;4.00;4.00;;;;;18.11;64.66;101881.06;4931912;28;45245;-84
2022/07/10 05:13:14;;;;;;;;;7.00;4.00;;;;;18.15;64.69;101874.78;4933560;28;45402;-84
2022/07/10 05:15:40;;;;;;;;;5.00;5.00;;;;;18.21;63.68;101876.59;4934233;28;45305;-84
2022/07/10 05:18:05;;;;;;;;;5.67;5.67;;;;;18.22;63.76;101874.78;4931726;28;44851;-84
2022/07/10 05:20:31;;;;;;;;;5.67;5.67;;;;;18.27;63.50;101881.06;4932435;28;44729;-84
2022/07/10 05:22:56;;;;;;;;;4.00;4.00;;;;;18.31;63.33;101882.88;4932049;28;45784;-85
2022/07/10 05:25:22;;;;;;;;;5.00;5.00;;;;;18.47;63.55;101886.47;4929663;28;47173;-83
2022/07/10 05:27:47;;;;;;;;;4.33;4.33;;;;;18.55;62.63;101881.97;4929613;28;45493;-84
2022/07/10 05:30:13;;;;;;;;;3.67;3.67;;;;;18.59;62.13;101890.03;4930203;28;45887;-84
2022/07/10 05:32:45;;;;;;;;;6.00;6.00;;;;;18.64;61.56;101902.63;4943287;28;45504;-84
2022/07/10 05:35:12;;;;;;;;;6.00;6.00;;;;;18.67;61.57;101887.34;4943990;28;46854;-84
2022/07/10 05:37:37;;;;;;;;;3.33;3.33;;;;;18.79;61.51;101897.25;4928260;28;45520;-84
2022/07/10 05:40:03;;;;;;;;;6.00;6.00;;;;;18.97;61.32;101899.03;4929173;28;45728;-84
2022/07/10 05:42:29;;;;;;;;;7.00;7.00;;;;;19.12;60.30;101904.34;4929335;28;45616;-84
2022/07/10 05:44:54;;;;;;;;;3.67;3.67;;;;;19.21;59.22;101906.16;4930850;28;46677;-84
2022/07/10 05:47:26;;;;;;;;;6.67;6.67;;;;;19.26;58.77;101898.94;4930116;28;45393;-84
2022/07/10 05:49:52;;;;;;;;;5.33;5.33;;;;;19.31;58.80;101894.44;4931300;28;44787;-84
2022/07/10 05:52:17;;;;;;;;;6.00;6.00;;;;;19.38;58.71;101906.09;4929897;28;45696;-84
2022/07/10 05:54:43;;;;;;;;;7.00;6.00;;;;;19.53;58.39;101899.72;4929663;28;46927;-84
2022/07/10 05:57:08;;;;;;;;;4.33;4.33;;;;;19.65;57.72;101886.16;4930414;28;45443;-84
2022/07/10 05:59:34;;;;;;;;;5.33;5.33;;;;;19.72;56.78;101887.97;4925989;28;45871;-84
2022/07/10 06:02:00;;;;;;;;;4.00;4.00;;;;;19.78;56.81;101898.72;4910671;28;45535;-85
2022/07/10 06:04:27;;;;;;;;;5.33;5.33;;;;;19.84;56.39;101903.19;4909178;28;45749;-84
2022/07/10 06:06:52;;;;;;;;;7.33;7.33;;;;;19.85;56.40;101901.38;4910777;28;45424;-84
2022/07/10 06:09:19;;;;;;;;;6.00;6.00;;;;;19.83;56.19;101889.72;4911838;29;45282;-83
2022/07/10 06:11:45;;;;;;;;;5.00;5.00;;;;;19.87;55.77;101892.38;4911739;28;45415;-82
2022/07/10 06:14:14;;;;;;;;;4.33;4.33;;;;;19.84;55.60;101891.50;4912270;28;45327;-83
2022/07/10 06:16:41;;;;;;;;;7.00;5.00;;;;;20.02;55.35;101901.28;4910594;29;45460;-83
2022/07/10 06:19:06;;;;;;;;;6.00;6.00;;;;;20.11;55.25;101891.31;4925471;28;45528;-84
2022/07/10 06:21:32;;;;;;;;;5.33;4.67;;;;;20.24;54.16;101899.31;4909483;29;45407;-83
2022/07/10 06:23:58;;;;;;;;;8.00;7.00;;;;;20.15;54.72;101890.38;4910024;28;45423;-83
2022/07/10 06:26:30;;;;;;;;;4.67;4.67;;;;;20.16;54.32;101894.00;4615542;28;8275632;-83
2022/07/10 06:29:02;;;;;;;;;5.00;4.33;;;;;20.10;54.37;101877.84;4908256;29;45533;-84
2022/07/10 06:31:28;;;;;;;;;9.00;6.00;;;;;20.16;54.48;101883.19;4910880;29;45434;-84
2022/07/10 06:33:54;;;;;;;;;7.00;5.00;;;;;20.17;53.88;101884.97;4895963;29;44943;-83
2022/07/10 06:36:19;;;;;;;;;4.00;4.00;;;;;20.20;54.01;101884.97;4911668;29;45619;-83
2022/07/10 06:38:45;;;;;;;;;6.00;6.00;;;;;20.22;54.12;101879.53;4914916;29;45394;-83
2022/07/10 06:41:10;;;;;;;;;3.33;3.33;;;;;20.41;54.19;101899.22;4913036;28;45890;-83
2022/07/10 06:43:35;;;;;;;;;4.33;4.33;;;;;20.55;53.38;101886.47;4913435;29;46368;-83
2022/07/10 06:46:01;;;;;;;;;4.00;4.00;;;;;20.66;53.32;101889.09;4913847;28;45753;-83
2022/07/10 06:48:28;;;;;;;;;5.67;5.00;;;;;20.84;52.76;101896.13;4912223;28;45266;-84
2022/07/10 06:50:53;;;;;;;;;5.00;5.00;;;;;20.87;52.05;101890.72;4913404;29;45375;-84
2022/07/10 06:53:23;;;;;;;;;6.00;6.00;;;;;20.85;52.06;101877.19;4914079;28;45698;-83
2022/07/10 06:55:53;;;;;;;;;7.00;7.00;;;;;21.05;50.62;101885.09;4912544;28;45487;-83
2022/07/10 06:58:18;;;;;;;;;4.00;4.00;;;;;21.05;50.59;101881.50;4912144;28;44810;-84
2022/07/10 07:01:09;;;;;;;;;4.00;4.00;;;;;21.09;50.13;101885.97;4914148;28;45288;-84
2022/07/10 07:03:34;;;;;;;;;8.67;5.00;;;;;21.07;50.41;101895.91;4911926;28;47408;-84
2022/07/10 07:06:00;;;;;;;;;4.33;4.33;;;;;21.05;49.09;101886.91;4911831;28;45307;-84
2022/07/10 07:08:25;;;;;;;;;4.00;4.00;;;;;21.07;49.29;101895.91;4911244;28;44852;-84
2022/07/10 07:10:51;;;;;;;;;4.00;4.00;;;;;21.13;48.85;101895.84;4909984;29;45491;-84
2022/07/10 07:13:18;;;;;;;;;3.67;3.67;;;;;21.12;48.45;101891.31;4911172;28;45486;-84
2022/07/10 07:15:50;;;;;;;;;6.33;5.00;;;;;21.08;49.25;101894.97;4910731;28;45289;-84
2022/07/10 07:18:16;;;;;;;;;4.67;3.67;;;;;21.23;48.98;101892.13;4910899;28;45354;-84
2022/07/10 07:23:29;;;;;;;;;5.00;5.00;;;;;21.46;48.18;101880.13;4912223;28;45593;-85
2022/07/10 07:26:10;;;;;;;;;5.33;4.00;;;;;21.66;48.09;101880.75;4912555;28;44809;-85
2022/07/10 07:28:42;;;;;;;;;4.33;4.00;;;;;21.70;46.11;101879.81;4894365;29;45495;-84
2022/07/10 07:31:08;;;;;;;;;5.00;5.00;;;;;21.51;46.11;101868.34;4911904;29;45543;-84
2022/07/10 07:33:33;;;;;;;;;3.00;3.00;;;;;21.56;45.62;101882.69;4912371;29;45362;-83
2022/07/10 07:35:59;;;;;;;;;2.67;2.67;;;;;21.55;45.67;101883.63;4913368;28;45466;-83
2022/07/10 07:38:27;;;;;;;;;3.00;3.00;;;;;;;;4913655;28;45373;-84
2022/07/10 07:40:52;;;;;;;;;3.33;3.33;;;;;21.59;46.45;101873.63;4913216;28;45925;-84
2022/07/10 07:43:18;;;;;;;;;3.67;3.67;;;;;21.60;45.72;101872.72;4911684;29;47242;-83
2022/07/10 07:45:44;;;;;;;;;3.00;3.00;;;;;;;;4921160;28;45371;-84
2022/07/10 07:48:09;;;;;;;;;3.00;3.00;;;;;21.66;45.35;101860.91;4913512;28;45495;-84
2022/07/10 07:50:36;;;;;;;;;3.67;2.00;;;;;21.86;44.99;101855.22;4912322;28;45351;-83
2022/07/10 07:53:03;;;;;;;;;2.67;2.67;;;;;21.96;44.17;101856.88;4912918;28;47164;-84
2022/07/10 07:55:34;;;;;;;;;4.00;4.00;;;;;22.03;44.77;101857.66;4913666;28;45739;-84
2022/07/10 07:58:00;;;;;;;;;2.00;2.00;;;;;22.02;43.04;101853.19;4930618;28;45354;-84
2022/07/10 08:00:27;;;;;;;;;4.00;2.33;;;;;22.06;44.18;101855.81;4913708;28;45500;-84
2022/07/10 08:03:00;;;;;;;;;2.67;2.67;;;;;22.20;44.39;101866.41;4927962;28;47409;-84
2022/07/10 08:08:47;;;;;;;;;2.00;2.00;;;;;22.33;43.16;101872.56;4915116;28;45440;-84
2022/07/10 08:11:13;;;;;;;;;3.33;2.67;;;;;22.33;42.62;101859.00;4912260;29;45309;-84
2022/07/10 08:13:38;;;;;;;;;6.00;4.67;;;;;22.32;42.33;101860.81;4910993;28;46850;-84
2022/07/10 08:16:04;;;;;;;;;4.00;4.00;;;;;22.30;43.22;101851.81;4895405;29;45849;-84
2022/07/10 08:18:31;;;;;;;;;3.33;2.67;;;;;22.28;42.71;101856.38;4896203;29;45420;-84
2022/07/10 08:20:56;;;;;;;;;3.67;3.67;;;;;22.29;42.10;101855.44;4894852;29;45420;-84
2022/07/10 08:23:22;;;;;;;;;3.33;3.33;;;;;22.32;40.79;101857.22;4895283;28;47214;-84
2022/07/10 08:25:47;;;;;;;;;3.00;3.00;;;;;22.23;41.93;101858.22;4894145;28;44898;-84
2022/07/10 08:28:13;;;;;;;;;2.00;2.00;;;;;22.23;41.72;101855.50;4913024;29;45528;-83
2022/07/10 08:30:38;;;;;;;;;2.00;2.00;;;;;22.35;41.58;101854.44;4912235;28;45605;-84
2022/07/10 08:33:04;;;;;;;;;2.00;2.00;;;;;22.39;40.92;101858.00;4910338;29;46974;-84
2022/07/10 08:35:30;;;;;;;;;4.00;3.00;;;;;22.28;41.21;101842.81;4910438;29;45340;-84
2022/07/10 08:37:58;;;;;;;;;3.00;3.00;;;;;22.34;40.68;101849.97;4911119;28;44858;-84
2022/07/10 08:40:24;;;;;;;;;4.33;4.33;;;;;22.32;40.59;101858.13;4909780;28;44849;-84
2022/07/10 08:42:49;;;;;;;;;3.67;3.67;;;;;22.37;40.51;101858.03;4910310;28;47252;-84
2022/07/10 08:45:15;;;;;;;;;3.00;3.00;;;;;22.50;40.94;101846.06;4910461;28;45413;-84
2022/07/10 08:47:44;;;;;;;;;2.33;2.33;;;;;22.66;41.81;101834.91;4899805;29;45373;-84
2022/07/10 08:50:21;;;;;;;;;3.33;3.33;;;;;22.79;40.64;101838.31;4914065;28;45500;-84
2022/07/10 08:52:58;;;;;;;;;3.00;3.00;;;;;22.86;40.91;101839.97;4913733;28;46890;-84
2022/07/10 08:55:25;;;;;;;;;3.33;3.00;;;;;22.90;40.89;101848.00;4913807;28;45376;-84
2022/07/10 08:57:51;;;;;;;;;4.00;4.00;;;;;22.94;40.67;101833.44;4914447;28;45420;-84
2022/07/10 09:00:18;;;;;;;;;4.67;3.00;;;;;23.02;40.86;101819.78;4915871;28;45844;-85
2022/07/10 09:02:45;;;;;;;;;4.67;4.67;;;;;23.07;40.46;101817.88;4914162;28;47072;-84
2022/07/10 09:05:11;;;;;;;;;5.00;5.00;;;;;23.11;39.95;101813.28;4915104;28;45265;-84
2022/07/10 09:07:37;;;;;;;;;3.67;3.33;;;;;23.21;40.04;101819.38;4914161;28;45792;-84
2022/07/10 09:10:08;;;;;;;;;4.33;4.33;;;;;23.11;39.23;101805.13;4913647;28;45458;-85
2022/07/10 09:12:59;;;;;;;;;4.00;2.33;;;;;23.19;40.12;101814.00;4913805;28;46696;-85
2022/07/10 09:15:29;;;;;;;;;2.33;2.33;;;;;23.23;39.61;101809.38;4915284;28;44931;-85
2022/07/10 09:18:07;;;;;;;;;2.00;2.00;;;;;23.29;39.49;101796.59;4913624;28;44859;-85
2022/07/10 09:20:44;;;;;;;;;5.67;4.67;;;;;23.28;39.65;101781.22;4912681;28;44928;-84
2022/07/10 09:23:19;;;;;;;;;3.67;3.00;;;;;23.49;38.71;101807.00;4928393;28;45496;-84
2022/07/10 09:25:49;;;;;;;;;4.00;4.00;;;;;23.52;39.67;101806.03;4912472;28;44796;-84
2022/07/10 09:28:21;;;;;;;;;3.67;2.67;;;;;23.50;39.24;101786.16;4914994;29;45433;-84
2022/07/10 09:30:50;;;;;;;;;5.00;5.00;;;;;23.65;37.95;101807.56;4915454;28;45731;-84
2022/07/10 09:33:19;;;;;;;;;5.00;3.00;;;;;23.56;38.03;101799.59;4912889;28;47197;-84
2022/07/10 09:36:10;;;;;;;;;2.00;2.00;;;;;23.42;38.03;101796.31;4897104;29;45368;-84
2022/07/10 09:38:50;;;;;;;;;2.00;2.00;;;;;23.42;38.12;101807.19;4925884;28;45419;-84
2022/07/10 09:41:16;;;;;;;;;2.00;2.00;;;;;23.41;38.58;101799.94;4917297;28;45383;-83
2022/07/10 09:43:52;;;;;;;;;4.67;3.00;;;;;23.48;38.50;101809.75;4917775;28;46759;-84
2022/07/10 09:46:23;;;;;;;;;2.00;2.00;;;;;23.34;38.71;101804.63;4934825;28;44703;-84
2022/07/10 09:49:00;;;;;;;;;2.00;2.00;;;;;23.25;38.94;101799.38;4936251;28;45410;-84
2022/07/10 09:51:29;;;;;;;;;2.33;2.33;;;;;23.27;39.14;101809.31;4934746;28;45365;-84
2022/07/10 09:53:56;;;;;;;;;3.00;3.00;;;;;23.33;38.79;101808.28;4932368;28;46235;-85
2022/07/10 09:56:23;;;;;;;;;1.33;1.33;;;;;23.36;38.36;101809.09;4931206;28;44897;-83
2022/07/10 09:58:57;;;;;;;;;4.67;3.33;;;;;23.38;38.77;101797.31;4913964;28;45355;-84
2022/07/10 10:01:23;;;;;;;;;1.67;1.67;;;;;23.39;38.94;101796.38;4931514;28;45441;-84
2022/07/10 10:03:49;;;;;;;;;1.67;1.67;;;;;23.50;38.87;101805.19;4915767;28;45334;-84
2022/07/10 10:06:15;;;;;;;;;1.67;1.67;;;;;23.50;38.59;101791.59;4933448;28;44776;-83
2022/07/10 10:09:07;;;;;;;;;1.00;1.00;;;;;23.56;38.72;101797.78;4933371;28;45501;-84
2022/07/10 10:11:36;;;;;;;;;2.00;2.00;;;;;23.58;38.24;101796.88;4934989;28;45462;-84
2022/07/10 10:14:39;;;;;;;;;3.00;3.00;;;;;23.61;38.28;101802.19;4916502;28;48076;-84
2022/07/10 10:17:05;;;;;;;;;3.00;3.00;;;;;23.65;38.57;101799.41;4932897;28;44726;-84
2022/07/10 10:22:18;;;;;;;;;4.00;3.00;;;;;23.52;38.11;101784.31;4934293;28;45402;-84
2022/07/10 10:24:45;;;;;;;;;3.00;3.00;;;;;23.52;38.26;101776.16;4931517;28;45445;-84
2022/07/10 10:27:11;;;;;;;;;2.00;2.00;;;;;23.45;38.52;101774.50;4924471;28;46014;-84
2022/07/10 10:29:38;;;;;;;;;1.67;1.67;;;;;23.52;38.90;101773.44;4931135;28;45543;-83
2022/07/10 10:32:04;;;;;;;;;2.00;2.00;;;;;23.64;38.91;101781.31;4948056;28;45663;-83
2022/07/10 10:34:45;;;;;;;;;2.00;2.00;;;;;23.74;38.16;101787.41;4931876;28;46668;-84
2022/07/10 10:37:37;;;;;;;;;1.33;1.33;;;;;23.66;38.24;101771.28;4931481;28;45433;-84
2022/07/10 10:40:05;;;;;;;;;4.00;2.33;;;;;23.50;38.32;101761.72;4933697;28;45440;-84
2022/07/10 10:42:38;;;;;;;;;1.33;1.33;;;;;23.63;38.58;101779.53;4934354;28;45429;-84
2022/07/10 10:45:27;;;;;;;;;2.33;2.00;;;;;23.60;38.58;101771.44;4923638;28;45990;-84
2022/07/10 10:48:12;;;;;;;;;1.33;1.33;;;;;23.53;38.42;101754.41;4928115;28;44861;-84
2022/07/10 10:50:51;;;;;;;;;2.00;2.00;;;;;23.57;38.81;101763.34;4912422;28;45433;-84
2022/07/10 10:53:22;;;;;;;;;2.67;2.67;;;;;23.62;38.88;101761.44;4915170;28;45361;-84
2022/07/10 10:56:03;;;;;;;;;2.33;2.33;;;;;23.63;38.80;101755.09;4912303;28;45314;-83
2022/07/10 10:58:40;;;;;;;;;2.67;2.67;;;;;23.67;39.38;101755.88;4915230;29;45481;-84
2022/07/10 11:01:24;;;;;;;;;4.67;3.00;;;;;23.71;38.90;101739.50;4915368;29;45558;-83
2022/07/10 11:04:04;;;;;;;;;2.00;2.00;;;;;23.90;38.85;101749.94;4913443;28;44819;-83
2022/07/10 11:06:41;;;;;;;;;3.67;3.00;;;;;23.92;38.82;101731.78;4913544;28;45398;-84
2022/07/10 11:09:29;;;;;;;;;2.00;2.00;;;;;24.02;38.71;101755.06;4911370;28;45534;-84
2022/07/10 11:12:05;;;;;;;;;2.00;2.00;;;;;23.95;38.67;101737.09;4911381;28;44836;-85
2022/07/10 11:14:36;;;;;;;;;3.00;3.00;;;;;23.94;38.76;101735.34;4927610;28;45550;-84
2022/07/10 11:17:02;;;;;;;;;1.67;1.67;;;;;24.00;38.24;101726.13;4911096;28;46708;-84
2022/07/10 11:19:29;;;;;;;;;2.33;2.33;;;;;23.98;38.93;101718.03;4912996;28;45694;-84
2022/07/10 11:22:17;;;;;;;;;3.00;3.00;;;;;24.09;38.81;101734.03;4912574;28;45017;-84
2022/07/10 11:28:13;;;;;;;;;2.00;2.00;;;;;24.17;39.42;101716.56;4911725;28;45441;-84
2022/07/10 11:30:45;;;;;;;;;2.67;2.00;;;;;24.26;37.96;101714.53;4896026;29;45469;-84
2022/07/10 11:33:10;;;;;;;;;2.00;2.00;;;;;24.21;38.54;101700.19;4913098;29;45358;-84
2022/07/10 11:35:38;;;;;;;;;3.33;3.33;;;;;24.23;38.45;101693.78;4913853;29;45266;-84
2022/07/10 11:38:04;;;;;;;;;4.33;3.00;;;;;24.31;38.91;101701.72;4896116;29;46800;-84
2022/07/10 11:40:29;;;;;;;;;1.33;1.33;;;;;24.34;38.66;101691.66;4913094;28;45554;-84
2022/07/10 11:42:55;;;;;;;;;3.33;3.00;;;;;24.43;38.91;101693.22;4914581;28;45067;-84
2022/07/10 11:45:30;;;;;;;;;1.00;1.00;;;;;24.47;38.73;101684.03;4931932;28;45640;-84
2022/07/10 11:47:56;;;;;;;;;4.00;2.67;;;;;24.49;38.32;101695.75;4915773;28;45447;-84
2022/07/10 11:50:22;;;;;;;;;2.33;2.33;;;;;24.54;38.28;101682.97;4914995;28;45830;-84
2022/07/10 11:52:49;;;;;;;;;3.00;3.00;;;;;24.55;38.07;101698.34;4914728;28;44935;-84
2022/07/10 11:55:19;;;;;;;;;2.67;2.67;;;;;24.54;38.45;101698.38;4914019;28;45443;-83
2022/07/10 11:57:48;;;;;;;;;3.67;3.00;;;;;24.49;38.51;101682.16;4930763;28;46097;-84
2022/07/10 12:00:24;;;;;;;;;1.33;1.33;;;;;24.62;38.45;101709.94;4911448;28;45425;-83
2022/07/10 12:02:54;;;;;;;;;2.00;2.00;;;;;24.63;38.82;101691.78;4913198;28;45376;-84